Latest Weather Observations for Cape Borda

IDS60801

Issued at 2:41 pm CDT Saturday 10 December 2022 (issued every 10 minutes, with the page automatically refreshed every 10 minutes)

About weather observations | Map of weather stations | Latest weather observations for SA | Other Formats
Station Details ID: 022823 Name: CAPE BORDA Lat: -35.75 Lon: 136.60 Height: 158.0 m
Data from the previous 72 hours. | See also: Recent months at Cape Borda
Date/Time
CDT
Temp
°C
App
Temp
°C
Dew
Point
°C
Rel
Hum
%
Delta-T
°C
Wind Press
QNH
hPa
Press
MSL
hPa
Rain since
9am
mm
Dir  Spd
km/h
Gust
km/h
Spd
kts
Gust
kts
10/02:30pm 25.2 21.8 10.6 39 8.2 NNE 19 26 10 14 1007.2 1006.8 0.0
10/02:00pm 25.7 22.2 10.3 38 8.6 NE 19 28 10 15 1007.1 1006.7 0.0
10/01:30pm 24.9 21.1 11.1 42 7.8 NE 22 28 12 15 1007.5 1007.1 0.0
10/01:00pm 24.1 19.9 11.1 44 7.3 NE 24 32 13 17 1007.8 1007.4 0.0
10/12:30pm 25.2 20.3 9.9 38 8.5 NE 26 35 14 19 1007.8 1007.4 0.0
10/12:00pm 24.2 19.4 9.0 38 8.3 NE 24 32 13 17 1008.1 1007.7 0.0
10/11:30am 24.8 19.7 9.1 37 8.6 NE 26 35 14 19 1008.2 1007.8 0.0
10/11:00am 23.7 18.5 8.9 39 8.0 ENE 26 39 14 21 1008.1 1007.7 0.0
10/10:30am 23.4 18.7 10.8 45 7.1 ENE 26 37 14 20 1008.6 1008.2 0.0
10/10:00am 23.1 18.1 9.5 42 7.4 ENE 26 35 14 19 1008.8 1008.4 0.0
10/09:30am 22.1 16.7 9.6 45 6.8 ENE 28 37 15 20 1009.3 1008.9 0.0
10/09:00am 20.2 14.7 9.2 49 5.9 ENE 28 35 15 19 1009.6 1009.3 0.0
10/08:30am 21.1 15.8 9.7 48 6.2 NE 28 41 15 22 1009.4 1009.1 0.0
10/08:00am 19.2 14.2 9.4 53 5.2 ENE 26 35 14 19 1009.6 1009.3 0.0
10/07:30am 18.9 13.4 9.1 53 5.2 NE 28 39 15 21 1009.5 1009.2 0.0
10/07:00am 18.2 12.9 9.8 58 4.5 ENE 28 39 15 21 1009.2 1008.8 0.0
10/06:30am 18.6 12.9 9.7 56 4.8 ENE 30 39 16 21 1009.5 1009.2 0.0
10/06:00am 18.3 13.1 10.2 59 4.4 NE 28 35 15 19 1009.7 1009.4 0.0
10/05:30am 18.2 12.5 9.8 58 4.5 NE 30 39 16 21 1009.6 1009.3 0.0
10/05:00am 18.4 12.1 8.9 54 5.0 ENE 32 43 17 23 1009.4 1009.1 0.0
10/04:30am 18.6 12.2 8.6 52 5.2 ENE 32 44 17 24 1009.6 1009.3 0.0
10/04:00am 18.7 12.6 8.1 50 5.5 ENE 30 41 16 22 1009.7 1009.4 0.0
10/03:30am 18.8 12.6 7.9 49 5.6 ENE 30 44 16 24 1009.7 1009.4 0.0
10/03:00am 19.2 13.2 7.0 45 6.2 ENE 28 35 15 19 1009.8 1009.5 0.0
10/02:30am 18.5 13.1 8.2 51 5.3 ENE 26 35 14 19 1009.9 1009.6 0.0
10/02:00am 18.2 13.2 7.9 51 5.3 ENE 24 33 13 18 1010.4 1010.1 0.0
10/01:30am 18.2 12.7 7.6 50 5.4 ENE 26 35 14 19 1010.5 1010.2 0.0
10/01:00am 18.1 12.6 7.5 50 5.4 ENE 26 35 14 19 1010.9 1010.6 0.0
10/12:30am 17.3 12.2 7.6 53 4.9 ENE 24 32 13 17 1011.2 1010.9 0.0
10/12:00am 16.9 11.7 7.3 53 4.8 E 24 32 13 17 1011.3 1011.0 0.0
 
Date/Time
CDT
Temp
°C
App
Temp
°C
Dew
Point
°C
Rel
Hum
%
Delta-T
°C
Wind Press
QNH
hPa
Press
MSL
hPa
Rain since
9am
mm
Dir  Spd
km/h
Gust
km/h
Spd
kts
Gust
kts
09/11:30pm 15.6 11.4 8.1 61 3.8 E 20 26 11 14 1011.6 1011.2 0.0
09/11:00pm 15.8 11.3 8.5 62 3.7 E 22 28 12 15 1012.0 1011.6 0.0
09/10:30pm 16.0 11.7 7.7 58 4.2 ESE 20 24 11 13 1012.2 1011.8 0.0
09/10:00pm 16.5 12.3 7.4 55 4.6 ESE 19 20 10 11 1012.5 1012.1 0.0
09/09:30pm 16.2 12.6 8.2 59 4.1 ESE 17 19 9 10 1012.5 1012.1 0.0
09/09:00pm 17.7 13.6 8.8 56 4.6 ENE 20 28 11 15 1012.5 1012.1 0.0
09/08:30pm 17.5 13.4 8.6 56 4.6 ENE 20 26 11 14 1012.4 1012.0 0.0
09/08:00pm 17.8 14.1 9.4 58 4.4 ENE 19 26 10 14 1012.4 1012.0 0.0
09/07:30pm 18.3 14.4 9.4 56 4.7 ENE 20 28 11 15 1012.4 1012.0 0.0
09/07:00pm 18.5 14.6 9.3 55 4.9 ENE 20 32 11 17 1012.3 1011.9 0.0
09/06:30pm 18.6 14.8 9.7 56 4.7 ENE 20 30 11 16 1012.4 1012.0 0.0
09/06:00pm 18.6 15.1 10.9 61 4.2 NE 20 26 11 14 1012.5 1012.1 0.0
09/05:30pm 19.1 16.0 12.1 64 3.9 NE 20 24 11 13 1012.7 1012.3 0.0
09/05:00pm 20.2 17.3 11.1 56 5.0 NE 17 20 9 11 1012.7 1012.3 0.0
09/04:30pm 20.0 16.6 10.4 54 5.2 NE 19 22 10 12 1012.9 1012.5 0.0
09/04:00pm 20.1 16.7 10.5 54 5.2 ENE 19 26 10 14 1013.2 1012.8 0.0
09/03:30pm 18.4 13.8 11.0 62 4.0 NE 26 33 14 18 1013.5 1013.1 0.0
09/03:00pm 18.4 13.6 10.3 59 4.4 NE 26 32 14 17 1013.8 1013.4 0.0
09/02:30pm 18.5 14.1 10.3 59 4.4 NE 24 30 13 16 1014.2 1013.8 0.0
09/02:00pm 18.3 13.9 10.4 60 4.3 ENE 24 33 13 18 1014.4 1014.0 0.0
09/01:30pm 17.8 12.6 10.2 61 4.1 ENE 28 35 15 19 1014.8 1014.4 0.0
09/01:00pm 17.9 13.2 10.5 62 4.0 NE 26 35 14 19 1014.9 1014.6 0.0
09/12:30pm 17.6 12.0 10.2 62 4.0 NE 30 39 16 21 1015.1 1014.8 0.0
09/12:00pm 17.1 12.0 10.5 65 3.5 NE 28 37 15 20 1015.6 1015.3 0.0
09/11:30am 16.2 11.1 10.5 69 3.0 ENE 28 37 15 20 1015.9 1015.6 0.0
09/11:00am 15.6 10.3 9.9 69 3.0 ENE 28 39 15 21 1016.2 1015.9 0.0
09/10:30am 15.2 9.8 9.6 69 2.9 NE 28 39 15 21 1016.2 1015.9 0.0
09/10:00am 14.9 9.3 8.6 66 3.2 NE 28 39 15 21 1016.5 1016.2 0.0
09/09:30am 14.4 8.0 8.4 67 3.0 NE 32 41 17 22 1016.4 1016.1 0.0
09/09:00am 13.5 7.9 8.6 72 2.5 NE 28 41 15 22 1016.3 1016.0 0.0
09/08:30am 13.1 7.8 8.4 73 2.4 ENE 26 37 14 20 1016.2 1015.9 0.0
09/08:00am 13.2 7.2 8.5 73 2.4 ENE 30 39 16 21 1016.3 1016.0 0.0
09/07:30am 13.1 7.8 8.4 73 2.4 ENE 26 35 14 19 1016.5 1016.2 0.0
09/07:00am 12.4 7.7 7.7 73 2.3 E 22 28 12 15 1016.8 1016.5 0.0
09/06:30am 12.2 7.8 7.3 72 2.4 E 20 26 11 14 1017.1 1016.8 0.0
09/06:00am 12.0 6.8 7.1 72 2.4 E 24 32 13 17 1016.4 1016.1 0.0
09/05:30am 11.8 5.8 7.1 73 2.3 ESE 28 39 15 21 1015.7 1015.4 0.0
09/05:00am 11.7 5.7 7.0 73 2.3 E 28 39 15 21 1015.3 1015.0 0.0
09/04:30am 11.7 5.6 6.8 72 2.4 E 28 39 15 21 1015.1 1014.8 0.0
09/04:00am 11.6 6.3 6.7 72 2.3 E 24 35 13 19 1015.5 1015.2 0.0
09/03:30am 11.7 7.7 6.8 72 2.4 E 17 26 9 14 1015.5 1015.2 0.0
09/03:00am 11.6 5.5 6.5 71 2.4 E 28 41 15 22 1014.6 1014.2 0.0
09/02:30am 11.5 7.1 6.4 71 2.4 ENE 19 24 10 13 1015.5 1015.2 0.0
09/02:00am 11.6 6.5 6.1 69 2.6 E 22 32 12 17 1015.5 1015.2 0.0
09/01:30am 11.7 6.6 6.0 68 2.7 E 22 32 12 17 1016.1 1015.8 0.0
09/01:00am 11.7 6.2 5.8 67 2.8 ESE 24 35 13 19 1016.0 1015.7 0.0
09/12:30am 11.6 6.9 6.1 69 2.6 ESE 20 28 11 15 1017.0 1016.7 0.0
09/12:00am 11.5 6.4 6.2 70 2.5 ESE 22 33 12 18 1017.3 1017.0 0.0
 
Date/Time
CDT
Temp
°C
App
Temp
°C
Dew
Point
°C
Rel
Hum
%
Delta-T
°C
Wind Press
QNH
hPa
Press
MSL
hPa
Rain since
9am
mm
Dir  Spd
km/h
Gust
km/h
Spd
kts
Gust
kts
08/11:30pm 11.5 6.8 6.2 70 2.5 ESE 20 30 11 16 1018.2 1017.8 0.0
08/11:00pm 11.7 7.0 6.2 69 2.6 ESE 20 30 11 16 1018.5 1018.1 0.0
08/10:30pm 11.7 6.6 6.0 68 2.7 ESE 22 32 12 17 1018.2 1017.8 0.0
08/10:00pm 11.8 7.1 5.9 67 2.8 ESE 20 26 11 14 1018.8 1018.4 0.0
08/09:30pm 12.0 7.5 5.9 66 2.9 ESE 19 24 10 13 1019.0 1018.6 0.0
08/09:00pm 12.3 7.8 6.1 66 2.9 ESE 19 26 10 14 1019.2 1018.8 0.0
08/08:30pm 12.6 7.9 6.0 64 3.1 SE 20 26 11 14 1019.1 1018.7 0.0
08/08:00pm 13.2 8.6 6.3 63 3.3 SE 20 26 11 14 1019.0 1018.6 0.0
08/07:30pm 13.8 9.5 6.9 63 3.4 SE 19 26 10 14 1018.6 1018.2 0.0
08/07:00pm 14.3 9.3 6.6 60 3.8 SE 22 30 12 16 1018.4 1018.0 0.0
08/06:30pm 14.8 9.4 6.4 57 4.1 SE 24 33 13 18 1017.8 1017.5 0.0
08/06:00pm 15.8 11.1 6.0 52 4.8 ESE 20 28 11 15 1017.2 1016.9 0.0
08/05:30pm 16.8 11.1 4.8 45 5.7 ESE 24 35 13 19 1016.7 1016.4 0.0
08/05:00pm 17.2 11.6 5.2 45 5.8 SE 24 35 13 19 1017.2 1016.9 0.0
08/04:30pm 17.5 11.7 6.1 47 5.6 ESE 26 35 14 19 1017.1 1016.8 0.0
08/04:00pm 17.9 12.3 7.0 49 5.5 SE 26 41 14 22 1017.5 1017.2 0.0
08/03:41pm 18.0 11.9 6.5 47 5.7 SE 28 46 15 25 1017.7 1017.4 0.0
08/03:30pm 17.7 12.1 5.6 45 5.9 ESE 24 35 13 19 1017.9 1017.6 0.0
08/03:00pm 17.6 12.0 5.5 45 5.9 SSE 24 43 13 23 1019.0 1018.6 0.0
08/02:30pm 17.5 11.6 5.8 46 5.7 SSE 26 41 14 22 1019.1 1018.7 0.0
08/02:00pm 16.7 11.5 5.6 48 5.4 SSE 22 35 12 19 1019.7 1019.3 0.0
08/01:30pm 17.1 13.0 6.3 49 5.3 SSE 17 28 9 15 1020.0 1019.6 0.0
08/01:00pm 17.0 12.1 6.8 51 5.1 SE 22 32 12 17 1020.0 1019.6 0.0
08/12:30pm 16.8 12.7 6.0 49 5.3 SE 17 26 9 14 1020.0 1019.6 0.0
08/12:00pm 16.6 11.8 4.6 45 5.7 SSE 19 30 10 16 1020.0 1019.6 0.0
08/11:30am 14.8 9.9 4.2 49 4.9 SSE 19 26 10 14 1020.1 1019.7 0.0
08/11:00am 16.2 11.7 6.3 52 4.9 SSE 19 28 10 15 1020.2 1019.8 0.0
08/10:30am 14.7 9.4 5.2 53 4.5 S 22 30 12 16 1020.2 1019.8 0.0
08/10:00am 15.1 10.4 5.3 52 4.7 SE 19 30 10 16 1020.1 1019.7 0.0
08/09:30am 14.0 9.2 5.6 57 4.0 SSE 20 28 11 15 1020.2 1019.8 0.0
08/09:00am 13.1 9.9 6.9 66 3.0 SSE 13 20 7 11 1020.3 1020.0 0.0
08/08:30am 12.6 9.1 7.1 69 2.7 S 15 20 8 11 1020.1 1019.7 0.0
08/08:00am 11.9 8.9 6.0 67 2.8 S 11 15 6 8 1019.8 1019.4 0.0
08/07:30am 11.3 7.7 5.0 65 2.9 S 13 17 7 9 1019.6 1019.2 0.0
08/07:00am 10.2 6.2 4.8 69 2.5 SSE 15 17 8 9 1019.2 1018.8 0.0
08/06:30am 8.9 4.5 4.5 74 2.0 SSE 17 17 9 9 1019.0 1018.6 0.0
08/06:00am 9.0 4.5 4.2 72 2.1 SSE 17 20 9 11 1018.7 1018.3 0.0
08/05:30am 9.4 4.9 4.0 69 2.4 SSE 17 20 9 11 1018.4 1018.0 0.0
08/05:00am 8.8 4.2 3.8 71 2.2 SSE 17 19 9 10 1018.1 1017.7 0.0
08/04:30am 8.8 4.5 3.4 69 2.3 SSE 15 17 8 9 1018.1 1017.7 0.0
08/04:00am 9.4 4.7 3.4 66 2.6 SSE 17 20 9 11 1018.1 1017.7 0.0
08/03:30am 8.3 3.6 3.4 71 2.1 SSE 17 17 9 9 1018.2 1017.8 0.0
08/03:00am 8.4 3.8 3.7 72 2.0 SSE 17 19 9 10 1018.2 1017.8 0.0
08/02:30am 8.8 4.3 4.4 74 1.9 SSE 17 19 9 10 1018.4 1018.0 0.0
08/02:00am 9.4 5.0 4.6 72 2.2 SSE 17 19 9 10 1018.6 1018.2 0.0
08/01:30am 9.5 5.4 4.1 69 2.4 S 15 17 8 9 1018.6 1018.2 0.0
08/01:00am 9.9 5.7 3.6 65 2.8 S 15 17 8 9 1018.6 1018.2 0.0
08/12:30am 10.0 5.3 3.1 62 3.0 S 17 20 9 11 1018.8 1018.4 0.0
08/12:00am 10.7 6.2 4.2 64 2.9 S 17 22 9 12 1018.9 1018.5 0.0
 
Date/Time
CDT
Temp
°C
App
Temp
°C
Dew
Point
°C
Rel
Hum
%
Delta-T
°C
Wind Press
QNH
hPa
Press
MSL
hPa
Rain since
9am
mm
Dir  Spd
km/h
Gust
km/h
Spd
kts
Gust
kts
07/11:30pm 10.6 6.5 4.3 65 2.8 S 15 19 8 10 1018.9 1018.5 0.0
07/11:00pm 10.3 5.6 3.3 62 3.1 S 17 24 9 13 1018.8 1018.4 0.0
07/10:30pm 11.2 6.0 3.5 59 3.4 S 20 30 11 16 1018.7 1018.3 0.0
07/10:00pm 11.8 7.5 5.4 65 3.0 S 17 20 9 11 1018.4 1018.0 0.0
07/09:30pm 11.6 7.2 4.8 63 3.1 S 17 24 9 13 1017.9 1017.6 0.0
07/09:00pm 11.4 6.6 4.4 62 3.2 S 19 26 10 14 1017.7 1017.4 0.0
07/08:30pm 11.8 4.7 3.6 57 3.7 S 30 41 16 22 1017.3 1017.0 0.0
07/08:00pm 12.5 5.8 3.7 55 4.0 S 28 41 15 22 1016.9 1016.6 0.0
07/07:30pm 13.1 5.7 4.8 57 3.9 S 33 50 18 27 1016.4 1016.1 0.0
07/07:22pm 13.5 6.2 4.6 55 4.1 S 32 50 17 27 1016.4 1016.1 0.0
07/07:00pm 13.6 5.6 3.9 52 4.4 S 35 50 19 27 1016.1 1015.8 0.0
07/06:52pm 13.8 6.3 3.3 49 4.8 S 32 50 17 27 1016.0 1015.7 0.0
07/06:30pm 13.7 6.2 4.3 53 4.3 S 33 46 18 25 1015.8 1015.5 0.0
07/06:00pm 13.8 6.2 4.1 52 4.5 S 33 48 18 26 1015.4 1015.1 0.0
07/05:30pm 15.9 8.4 6.3 53 4.7 S 35 54 19 29 1015.2 1014.9 0.0
07/05:07pm 15.3 7.4 4.4 48 5.1 S 35 56 19 30 1015.2 1014.9 0.0
07/05:00pm 15.6 7.9 5.2 50 5.0 S 35 46 19 25 1015.2 1014.9 0.0
07/04:30pm 15.7 8.0 5.3 50 5.0 S 35 52 19 28 1014.8 1014.4 0.0
07/04:00pm 16.5 8.8 5.5 48 5.3 SSW 35 52 19 28 1014.7 1014.3 0.0
07/03:45pm 16.6 9.7 7.3 54 4.7 S 33 52 18 28 1014.6 1014.2 0.0
07/03:30pm 17.7 11.0 8.0 53 5.0 S 33 48 18 26 1014.5 1014.1 0.0
07/03:05pm 16.7 9.3 8.4 58 4.3 S 37 56 20 30 1014.3 1013.9 0.0
07/03:00pm 16.7 8.6 6.8 52 4.9 SSW 39 56 21 30 1014.2 1013.8 0.0

Other formats

Comma delimited format used in spreadsheet applications
http://www.bom.gov.au/fwo/IDS60801/IDS60801.95805.axf

JavaScript Object Notation format (JSON) in row-major order
http://www.bom.gov.au/fwo/IDS60801/IDS60801.95805.json

Data quality

Most of these data are generated automatically and are frequently updated. Quality checks on data are not normally performed. It is possible for incorrect values to appear. Refer to information at About Latest Weather Observations and please check the disclaimer before using these data.